Share

Somerset, KY

1:38 AM EDT on April 25, 2014 (GMT -0400)
RAWS SOMERSET KY US (MSOMK2) Elev 920 ft | 37.05 °N, 84.61 °W | Change Station

Current weather conditions updated 37 minutes ago

Clear
Clear
65 °F
Feels Like 65 °F
N
3
Wind Variable Wind from SSW
Gusts 9.0 mph
Sunrise 6:50 AM
Sunset 8:21 PM
Moon Waning Crescent

Today is forecast to be Much Cooler than yesterday. Cloudy with showers and thunderstorms.

Pressure 29.81 in
Visibility 10.0 miles
Clouds Clear
Dew Point 39 °F
Humidity 39%
Rainfall 0.00 in
Snow Depth Not available.
UV 0 out of 16
Pollen 10.70 out of 12
Air Quality Not available.
Flu Activity Sporadic
METAR KSME 250515Z AUTO 20003KT 10SM CLR 18/03 A2981 RMK AO2

More Conditions Fewer Conditions

Pressure 29.81 in
Visibility 10.0 miles
Clouds Clear
Dew Point 39 °F
Humidity 39%
Rainfall 0.00 in
Snow Depth Not available.
UV 0 out of 16
Pollen 10.70 out of 12
Air Quality Not available.
Flu Activity Sporadic
METAR KSME 250515Z AUTO 20003KT 10SM CLR 18/03 A2981 RMK AO2

More Conditions Fewer Conditions

10-Day Weather Forecast

Almanac

Astronomy

Apr. 25, 2014 Rise Set
Actual Time 6:50 AM EDT 8:21 PM EDT
Civil Twilight 6:23 AM EDT 8:49 PM EDT
Nautical Twilight 5:50 AM EDT 9:22 PM EDT
Astronomical Twilight 5:15 AM EDT 9:57 PM EDT
Moon 4:32 AM EDT 4:48 PM EDT
Length of Visible Light 14h 26m
Length of Day
13h 31m
Tomorrow will be 2m 6s longer.
Waning Crescent, 19% of the Moon is Illuminated
Today
Waning Crescent
Apr 29
New
May 6
First Quarter
May 14
Full
May 21
Last Quarter

Today's Extremes

State Highs State Lows

Community

  • Deer in evening light
    Deer in evening light
  • Critter
    Critter
  • Jone Runs Falls
    Jone Runs Falls
  • Easter in Shenandoah National Park
    Easter in Shenandoah National Park
  • Sunset at Apalachicola Bay, Florida
    Sunset at Apalachicola Bay, Florida

WunderPhotos

Upload Photos

1,704,861 photos uploaded!

WunderBlogs® & News

Nearby

Snow Depth

Station Depth Elevation
No new snow has been reported.

Coastal Water Temperatures

Place Temperature
No Stations Reporting

Earthquake Activity

City Distance Mag. Time & Date
No recent earthquake activity has been reported nearby.
Minimum magnitude displayed is 2.5.

Nearby Weather Stations

Station Location Temp. Dew Point Humidity Wind Precip. Elev Updated Type
RAWS SOMERSET KY, Ferguson, KY 65 °F 39 °F 39% SSW  at  3 mph 0.00 in / hr 920 ft 1:01 AM EDT MADIS
HALLS BACKYARD WEATHER, SCIENCE HILL, KY 66.3 °F 42 °F 41% East  at  5.0 mph 0.00 in / hr 1076 ft 1:38 AM EDT Normal
Burnside, KY 64.2 °F 27 °F 24% NNW  at  0.0 mph 0.00 in / hr 1200 ft 1:38 AM EDT Rapid Fire
MSWO, London, KY 55.4 °F 41 °F 59% SSE  at  0.0 mph 0.00 in / hr 1163 ft 1:38 AM EDT Rapid Fire

Show More Stations Show Fewer Stations

What do you think?

We're not finished. Please let us know what you like, what you don't like, and what you are still missing.